createdAt,value
2022-09-30T00:02:17.595Z,22.43
2022-09-30T00:04:44.190Z,20.10
2022-09-30T00:07:10.733Z,21.13
2022-09-30T00:09:37.315Z,20.70
2022-09-30T00:12:04.243Z,17.90
2022-09-30T00:14:30.814Z,18.73
2022-09-30T00:16:57.385Z,16.63
2022-09-30T00:19:25.153Z,17.97
2022-09-30T00:21:51.768Z,17.57
2022-09-30T00:24:18.412Z,17.73
2022-09-30T00:26:45.137Z,23.60
2022-09-30T00:29:11.937Z,18.83
2022-09-30T00:31:38.877Z,16.30
2022-09-30T00:34:08.747Z,16.03
2022-09-30T00:36:38.970Z,18.03
2022-09-30T00:39:07.432Z,20.50
2022-09-30T00:41:34.557Z,19.23
2022-09-30T00:44:01.487Z,18.17
2022-09-30T00:46:35.145Z,21.43
2022-09-30T00:49:06.765Z,19.40
2022-09-30T00:51:37.170Z,17.63
2022-09-30T00:54:06.919Z,20.93
2022-09-30T00:56:38.099Z,18.60
2022-09-30T00:59:08.423Z,27.17
2022-09-30T01:01:35.989Z,16.50
2022-09-30T01:04:09.819Z,17.10
2022-09-30T01:06:37.755Z,18.20
2022-09-30T01:09:04.746Z,19.53
2022-09-30T01:11:31.463Z,27.83
2022-09-30T01:14:03.000Z,19.13
2022-09-30T01:16:51.989Z,18.87
2022-09-30T01:19:43.066Z,15.93
2022-09-30T01:22:37.776Z,26.40
2022-09-30T01:25:50.027Z,15.03
2022-09-30T01:28:43.557Z,15.10
2022-09-30T01:31:31.519Z,21.23
2022-09-30T01:34:05.677Z,16.37
2022-09-30T01:36:43.941Z,16.33
2022-09-30T01:39:24.433Z,25.97
2022-09-30T01:41:54.130Z,21.87
2022-09-30T01:44:31.271Z,15.27
2022-09-30T01:47:03.132Z,17.90
2022-09-30T01:49:34.731Z,19.53
2022-09-30T01:52:08.217Z,17.50
2022-09-30T01:54:42.099Z,17.70
2022-09-30T01:57:16.050Z,16.70
2022-09-30T01:59:47.624Z,14.77
2022-09-30T02:02:19.626Z,23.90
2022-09-30T02:04:52.019Z,17.83
2022-09-30T02:07:24.670Z,15.13
2022-09-30T02:09:55.752Z,35.83
2022-09-30T02:12:26.513Z,16.37
2022-09-30T02:15:00.592Z,17.67
2022-09-30T02:17:32.349Z,19.13
2022-09-30T02:20:02.345Z,21.90
2022-09-30T02:22:31.027Z,17.13
2022-09-30T02:25:01.628Z,17.77
2022-09-30T02:27:34.270Z,18.70
2022-09-30T02:30:03.403Z,16.97
2022-09-30T02:32:34.982Z,20.50
2022-09-30T02:35:05.941Z,18.83
2022-09-30T02:37:37.367Z,17.27
2022-09-30T02:40:09.970Z,18.17
2022-09-30T02:42:38.327Z,17.53
2022-09-30T02:45:08.468Z,28.23
2022-09-30T02:47:47.977Z,18.20
2022-09-30T02:50:20.667Z,19.80
2022-09-30T02:52:59.549Z,25.47
2022-09-30T02:55:30.877Z,16.17
2022-09-30T02:58:04.367Z,22.10
2022-09-30T03:00:31.079Z,17.70
2022-09-30T03:03:04.495Z,20.77
2022-09-30T03:05:31.261Z,19.43
2022-09-30T03:07:57.903Z,18.03
2022-09-30T03:10:25.275Z,19.70
2022-09-30T03:13:06.933Z,27.43
2022-09-30T03:15:49.149Z,19.93
2022-09-30T03:18:36.933Z,19.63
2022-09-30T03:21:13.185Z,18.30
2022-09-30T03:24:01.383Z,19.00
2022-09-30T03:26:39.544Z,20.77
2022-09-30T03:29:13.324Z,21.33
2022-09-30T03:31:51.258Z,28.90
2022-09-30T03:34:26.919Z,19.77
2022-09-30T03:37:04.179Z,20.93
2022-09-30T03:39:43.246Z,25.07
2022-09-30T03:42:20.572Z,17.73
2022-09-30T03:44:56.754Z,18.77
2022-09-30T03:47:26.145Z,22.10
2022-09-30T03:49:59.298Z,21.60
2022-09-30T03:52:27.631Z,16.80
2022-09-30T03:54:59.023Z,20.87
2022-09-30T03:57:28.204Z,18.80
2022-09-30T03:59:55.108Z,18.10
2022-09-30T04:02:21.713Z,22.40
2022-09-30T04:04:48.265Z,20.83
2022-09-30T04:07:15.593Z,18.07
2022-09-30T04:09:42.239Z,23.80
2022-09-30T04:12:09.319Z,18.90
2022-09-30T04:14:36.310Z,20.30
2022-09-30T04:17:03.263Z,24.70
2022-09-30T04:19:29.969Z,29.40
2022-09-30T04:21:56.674Z,32.20
2022-09-30T04:24:24.651Z,22.83
2022-09-30T04:26:51.579Z,19.77
2022-09-30T04:29:18.200Z,23.87
2022-09-30T04:31:44.902Z,26.03
2022-09-30T04:34:11.478Z,19.53
2022-09-30T04:36:38.487Z,21.63
2022-09-30T04:39:05.684Z,24.33
2022-09-30T04:41:33.681Z,22.80
2022-09-30T04:44:05.376Z,23.00
2022-09-30T04:46:33.583Z,25.33
2022-09-30T04:49:00.311Z,31.70
2022-09-30T04:51:26.878Z,21.67
2022-09-30T04:53:53.534Z,22.67
2022-09-30T04:56:20.181Z,29.70
2022-09-30T04:58:47.374Z,24.03
2022-09-30T05:01:18.368Z,21.27
2022-09-30T05:03:46.435Z,32.97
2022-09-30T05:06:13.514Z,21.90
2022-09-30T05:08:45.739Z,21.13
2022-09-30T05:11:16.689Z,20.13
2022-09-30T05:13:44.045Z,21.23
2022-09-30T05:16:11.874Z,25.30
2022-09-30T05:18:40.403Z,22.03
2022-09-30T05:21:07.198Z,28.90
2022-09-30T05:23:33.949Z,24.30
2022-09-30T05:26:01.309Z,29.63
2022-09-30T05:28:30.521Z,23.07
2022-09-30T05:30:58.719Z,18.67
2022-09-30T05:33:26.480Z,19.37
2022-09-30T05:35:53.164Z,20.27
2022-09-30T05:38:19.780Z,24.80
2022-09-30T05:40:46.363Z,23.87
2022-09-30T05:43:13.012Z,19.33
2022-09-30T05:45:39.572Z,20.67
2022-09-30T05:48:07.061Z,26.13
2022-09-30T05:50:34.440Z,21.33
2022-09-30T05:53:01.295Z,20.77
2022-09-30T05:55:27.816Z,22.03
2022-09-30T05:57:54.823Z,25.30
2022-09-30T06:00:21.376Z,26.67
2022-09-30T06:02:51.979Z,20.33
2022-09-30T06:05:22.264Z,22.47
2022-09-30T06:07:50.598Z,26.67
2022-09-30T06:10:17.307Z,21.53
2022-09-30T06:12:43.870Z,25.27
2022-09-30T06:15:10.806Z,21.63
2022-09-30T06:17:37.374Z,25.47
2022-09-30T06:20:04.896Z,21.80
2022-09-30T06:22:35.218Z,28.63
2022-09-30T06:25:03.839Z,23.80
2022-09-30T06:27:30.594Z,21.87
2022-09-30T06:29:57.220Z,29.50
2022-09-30T06:32:25.357Z,19.00
2022-09-30T06:34:51.940Z,20.50
2022-09-30T06:37:18.537Z,29.77
2022-09-30T06:39:45.115Z,18.77
2022-09-30T06:42:14.115Z,25.97
2022-09-30T06:44:51.459Z,22.57
2022-09-30T06:47:25.218Z,21.70
2022-09-30T06:49:58.177Z,19.83
2022-09-30T06:52:25.756Z,29.67
2022-09-30T06:54:52.764Z,22.73
2022-09-30T06:57:22.151Z,27.57
2022-09-30T06:59:49.598Z,24.83
2022-09-30T07:02:16.587Z,28.33
2022-09-30T07:04:43.374Z,21.87
2022-09-30T07:07:10.023Z,23.93
2022-09-30T07:09:36.691Z,19.63
2022-09-30T07:12:04.113Z,26.83
2022-09-30T07:14:31.722Z,27.53
2022-09-30T07:16:58.877Z,23.80
2022-09-30T07:19:25.508Z,28.10
2022-09-30T07:21:52.088Z,32.47
2022-09-30T07:24:19.237Z,27.93
2022-09-30T07:26:45.771Z,27.17
2022-09-30T07:29:13.050Z,34.40
2022-09-30T07:31:40.721Z,28.23
2022-09-30T07:34:09.096Z,20.57
2022-09-30T07:36:37.152Z,33.20
2022-09-30T07:39:05.360Z,22.80
2022-09-30T07:41:32.903Z,32.73
2022-09-30T07:43:59.477Z,43.37
2022-09-30T07:46:29.556Z,47.67
2022-09-30T07:49:03.311Z,23.57
2022-09-30T07:51:32.295Z,28.83
2022-09-30T07:54:01.458Z,25.47
2022-09-30T07:56:37.058Z,32.60
2022-09-30T07:59:15.509Z,31.63
2022-09-30T08:01:42.187Z,36.20
2022-09-30T08:04:11.430Z,26.27
2022-09-30T08:06:40.625Z,22.27
2022-09-30T08:09:08.168Z,31.43
2022-09-30T08:11:35.694Z,32.27
2022-09-30T08:14:02.956Z,43.03
2022-09-30T08:16:29.784Z,35.47
2022-09-30T08:18:57.592Z,28.70
2022-09-30T08:21:25.430Z,29.13
2022-09-30T08:23:52.318Z,30.40
2022-09-30T08:26:19.084Z,27.60
2022-09-30T08:28:46.645Z,27.30
2022-09-30T08:31:15.557Z,27.43
2022-09-30T08:33:42.953Z,25.67
2022-09-30T08:36:11.139Z,33.40
2022-09-30T08:38:39.298Z,46.47
2022-09-30T08:41:19.572Z,30.40
2022-09-30T08:43:59.552Z,17.87
2022-09-30T08:46:36.667Z,24.80
2022-09-30T08:49:13.338Z,17.73
2022-09-30T08:51:45.219Z,22.07
2022-09-30T08:54:16.182Z,21.60
2022-09-30T08:56:45.156Z,21.73
2022-09-30T08:59:20.173Z,19.17
2022-09-30T09:01:51.720Z,20.83
2022-09-30T09:04:18.842Z,21.57
2022-09-30T09:06:56.412Z,18.53
2022-09-30T09:09:38.588Z,28.43
2022-09-30T09:12:21.901Z,21.07
2022-09-30T09:15:07.416Z,26.70
2022-09-30T09:18:18.227Z,21.77
2022-09-30T09:20:47.131Z,24.00
2022-09-30T09:23:14.256Z,22.33
2022-09-30T09:25:53.514Z,19.67
2022-09-30T09:28:42.080Z,23.40
2022-09-30T09:31:16.799Z,16.93
2022-09-30T09:33:46.932Z,14.10
2022-09-30T09:36:25.252Z,18.47
2022-09-30T09:39:06.030Z,17.20
2022-09-30T09:41:43.559Z,18.57
2022-09-30T09:44:18.949Z,15.23
2022-09-30T09:46:48.890Z,15.07
2022-09-30T09:49:41.800Z,15.33
2022-09-30T09:52:34.756Z,18.30
2022-09-30T09:55:01.330Z,36.70
2022-09-30T09:57:31.574Z,19.27
2022-09-30T10:00:20.053Z,12.17
2022-09-30T10:02:58.826Z,15.43
2022-09-30T10:05:25.954Z,13.87
2022-09-30T10:08:09.473Z,8.97
2022-09-30T10:10:48.301Z,11.03
2022-09-30T10:13:20.829Z,14.47
2022-09-30T10:15:48.784Z,16.63
2022-09-30T10:18:24.199Z,12.80
2022-09-30T10:20:54.178Z,19.97
2022-09-30T10:23:26.324Z,13.70
2022-09-30T10:25:58.360Z,18.63
2022-09-30T10:28:30.723Z,13.67
2022-09-30T10:31:06.704Z,10.67
2022-09-30T10:33:41.662Z,28.50
2022-09-30T10:36:15.758Z,16.67
2022-09-30T10:38:52.344Z,16.17
2022-09-30T10:41:24.659Z,22.53
2022-09-30T10:43:58.054Z,15.13
2022-09-30T10:46:28.967Z,16.40
2022-09-30T10:48:57.216Z,10.77
2022-09-30T10:51:28.253Z,12.93
2022-09-30T10:53:55.919Z,11.73
2022-09-30T10:56:38.086Z,10.77
2022-09-30T10:59:15.808Z,12.57
2022-09-30T11:01:52.493Z,12.63
2022-09-30T11:04:26.746Z,12.10
2022-09-30T11:07:01.908Z,23.33
2022-09-30T11:09:34.702Z,9.97
2022-09-30T11:12:11.441Z,17.00
2022-09-30T11:14:46.877Z,14.97
2022-09-30T11:17:23.325Z,8.60
2022-09-30T11:19:55.622Z,10.07
2022-09-30T11:22:31.794Z,10.33
2022-09-30T11:24:58.801Z,21.50
2022-09-30T11:27:41.931Z,11.53
2022-09-30T11:30:14.973Z,14.20
2022-09-30T11:33:12.847Z,11.23
2022-09-30T11:38:49.662Z,12.20
2022-09-30T11:41:23.549Z,10.07
2022-09-30T11:44:01.201Z,14.77
2022-09-30T11:46:42.762Z,13.47
2022-09-30T11:49:27.902Z,11.03
2022-09-30T11:52:03.599Z,13.53
2022-09-30T11:54:49.933Z,10.17
2022-09-30T11:57:24.128Z,7.50
2022-09-30T11:59:55.484Z,7.00
2022-09-30T12:02:31.757Z,6.33
2022-09-30T12:05:05.407Z,9.60
2022-09-30T12:07:40.639Z,6.00
2022-09-30T12:10:17.943Z,12.30
2022-09-30T12:12:49.642Z,6.50
2022-09-30T12:15:19.794Z,9.27
2022-09-30T12:17:50.137Z,7.97
2022-09-30T12:20:25.393Z,11.20
2022-09-30T12:23:00.853Z,14.97
2022-09-30T12:25:32.039Z,12.30
2022-09-30T12:28:26.227Z,9.03
2022-09-30T12:31:05.459Z,8.83
2022-09-30T12:33:52.181Z,6.67
2022-09-30T12:36:39.362Z,5.70
2022-09-30T12:39:41.168Z,6.83
2022-09-30T12:42:29.779Z,7.83
2022-09-30T12:45:19.765Z,12.87
2022-09-30T12:47:50.775Z,8.77
2022-09-30T12:50:20.992Z,7.57
2022-09-30T12:52:48.414Z,6.80
2022-09-30T12:55:24.686Z,8.63
2022-09-30T12:57:52.621Z,8.10
2022-09-30T13:00:28.884Z,14.80
2022-09-30T13:02:58.753Z,11.37
2022-09-30T13:05:52.904Z,15.50
2022-09-30T13:08:46.594Z,8.30
2022-09-30T13:11:37.297Z,7.57
2022-09-30T13:14:21.200Z,5.80
2022-09-30T13:17:25.906Z,4.45
2022-09-30T13:19:55.189Z,2.27
2022-09-30T13:22:57.286Z,4.20
2022-09-30T13:25:24.012Z,4.03
2022-09-30T13:27:54.642Z,7.27
2022-09-30T13:30:39.385Z,5.93
2022-09-30T13:33:29.860Z,6.32
2022-09-30T13:35:58.874Z,8.88
2022-09-30T13:38:38.418Z,4.88
2022-09-30T13:41:14.277Z,4.85
2022-09-30T13:43:45.742Z,5.22
2022-09-30T13:46:22.605Z,5.07
2022-09-30T13:48:55.416Z,5.25
2022-09-30T13:51:27.112Z,3.22
2022-09-30T13:53:57.801Z,7.20
2022-09-30T13:56:27.517Z,6.32
2022-09-30T13:59:24.963Z,4.90
2022-09-30T14:02:22.489Z,4.20
2022-09-30T14:05:08.510Z,3.93
2022-09-30T14:07:46.501Z,5.63
2022-09-30T14:10:29.585Z,6.20
2022-09-30T14:13:11.907Z,4.20
2022-09-30T14:15:56.552Z,2.23
2022-09-30T14:18:53.619Z,8.53
2022-09-30T14:21:33.372Z,6.73
2022-09-30T14:24:03.411Z,7.83
2022-09-30T14:26:52.213Z,4.27
2022-09-30T14:29:28.081Z,4.27
2022-09-30T14:31:55.435Z,5.23
2022-09-30T14:34:23.518Z,6.20
2022-09-30T14:36:51.272Z,12.20
2022-09-30T14:39:21.611Z,6.00
2022-09-30T14:41:55.123Z,13.17
2022-09-30T14:44:23.548Z,4.77
2022-09-30T14:46:51.932Z,9.40
2022-09-30T14:49:21.769Z,6.93
2022-09-30T14:51:49.349Z,6.37
2022-09-30T14:54:19.474Z,7.03
2022-09-30T14:56:46.460Z,7.50
2022-09-30T14:59:18.991Z,9.50
2022-09-30T15:01:47.615Z,7.43
2022-09-30T15:04:17.990Z,11.77
2022-09-30T15:06:47.586Z,7.37
2022-09-30T15:09:18.551Z,7.57
2022-09-30T15:11:46.113Z,16.23
2022-09-30T15:14:17.467Z,7.43
2022-09-30T15:16:48.943Z,10.07
2022-09-30T15:19:20.814Z,11.33
2022-09-30T15:21:48.575Z,8.83
2022-09-30T15:24:17.020Z,14.30
2022-09-30T15:26:46.260Z,11.33
2022-09-30T15:29:14.396Z,7.30
2022-09-30T15:31:44.916Z,12.60
2022-09-30T15:34:20.453Z,12.20
2022-09-30T15:37:05.718Z,6.27
2022-09-30T15:39:53.815Z,6.83
2022-09-30T15:42:36.705Z,6.17
2022-09-30T15:45:11.244Z,12.07
2022-09-30T15:48:02.383Z,6.70
2022-09-30T15:50:40.220Z,9.07
2022-09-30T15:53:19.109Z,16.07
2022-09-30T15:55:54.956Z,8.40
2022-09-30T15:58:38.910Z,10.60
2022-09-30T16:01:15.143Z,7.77
2022-09-30T16:04:02.235Z,8.23
2022-09-30T16:06:36.038Z,8.87
2022-09-30T16:09:18.187Z,12.03
2022-09-30T16:11:53.345Z,10.77
2022-09-30T16:14:39.665Z,8.80
2022-09-30T16:17:07.268Z,9.43
2022-09-30T16:19:35.027Z,9.63
2022-09-30T16:22:07.594Z,11.03
2022-09-30T16:24:47.656Z,12.47
2022-09-30T16:27:29.250Z,13.40
2022-09-30T16:29:59.781Z,8.70
2022-09-30T16:32:46.439Z,12.47
2022-09-30T16:35:19.507Z,30.17
2022-09-30T16:37:51.782Z,14.43
2022-09-30T16:40:25.083Z,13.47
2022-09-30T16:42:55.079Z,14.63
2022-09-30T16:45:25.305Z,16.40
2022-09-30T16:47:52.317Z,22.90
2022-09-30T16:50:52.859Z,20.90
2022-09-30T16:53:19.759Z,18.23
2022-09-30T16:58:42.352Z,15.90
2022-09-30T17:01:18.016Z,13.57
2022-09-30T17:03:44.738Z,24.63
2022-09-30T17:06:13.766Z,26.10
2022-09-30T17:08:40.685Z,22.07
2022-09-30T17:11:10.275Z,16.17
2022-09-30T17:13:48.069Z,16.43
2022-09-30T17:16:14.820Z,12.67
2022-09-30T17:18:41.747Z,16.33
2022-09-30T17:21:20.852Z,16.87
2022-09-30T17:24:09.942Z,18.57
2022-09-30T17:26:38.308Z,19.40
2022-09-30T17:29:28.337Z,16.50
2022-09-30T17:31:58.872Z,18.07
2022-09-30T17:34:27.359Z,14.73
2022-09-30T17:36:56.443Z,18.00
2022-09-30T17:39:31.341Z,15.57
2022-09-30T17:42:16.268Z,11.13
2022-09-30T17:44:47.733Z,16.03
2022-09-30T17:47:14.426Z,23.30
2022-09-30T17:49:42.722Z,19.67
2022-09-30T17:52:13.834Z,17.47
2022-09-30T17:54:52.322Z,15.20
2022-09-30T17:57:19.794Z,15.53
2022-09-30T17:59:46.962Z,15.63
2022-09-30T18:02:16.838Z,16.97
2022-09-30T18:04:47.462Z,13.50
2022-09-30T18:07:16.424Z,13.40
2022-09-30T18:09:45.212Z,17.03
2022-09-30T18:12:15.182Z,16.37
2022-09-30T18:14:43.212Z,13.83
2022-09-30T18:17:11.220Z,13.97
2022-09-30T18:19:40.059Z,11.87
2022-09-30T18:22:06.948Z,21.07
2022-09-30T18:25:07.645Z,15.53
2022-09-30T18:27:34.324Z,14.30
2022-09-30T18:30:05.284Z,18.57
2022-09-30T18:32:35.203Z,19.70
2022-09-30T18:35:08.478Z,16.07
2022-09-30T18:37:35.285Z,25.90
2022-09-30T18:40:08.711Z,26.67
2022-09-30T18:42:41.316Z,17.73
2022-09-30T18:45:10.996Z,22.33
2022-09-30T18:47:44.263Z,18.17
2022-09-30T18:50:13.162Z,23.30
2022-09-30T18:52:40.581Z,20.73
2022-09-30T18:55:09.780Z,18.83
2022-09-30T18:57:37.056Z,22.93
2022-09-30T19:00:09.586Z,20.83
2022-09-30T19:02:40.054Z,32.20
2022-09-30T19:05:07.829Z,21.53
2022-09-30T19:07:37.834Z,30.30
2022-09-30T19:10:09.713Z,31.73
2022-09-30T19:12:44.047Z,27.20
2022-09-30T19:15:18.592Z,35.90
2022-09-30T19:17:49.416Z,23.90
2022-09-30T19:20:24.925Z,22.43
2022-09-30T19:22:51.578Z,25.93
2022-09-30T19:25:21.434Z,24.50
2022-09-30T19:27:48.767Z,24.90
2022-09-30T19:30:16.112Z,30.20
2022-09-30T19:32:43.037Z,32.67
2022-09-30T19:35:11.783Z,27.93
2022-09-30T19:37:39.554Z,27.20
2022-09-30T19:40:18.984Z,36.00
2022-09-30T19:42:50.007Z,40.80
2022-09-30T19:45:22.967Z,30.23
2022-09-30T19:47:52.087Z,30.17
2022-09-30T19:50:18.931Z,35.40
2022-09-30T19:52:56.327Z,33.07
2022-09-30T19:55:27.248Z,32.90
2022-09-30T19:58:27.042Z,32.60
2022-09-30T20:01:09.604Z,34.33
2022-09-30T20:03:37.073Z,33.17
2022-09-30T20:06:08.183Z,28.63
2022-09-30T20:08:36.376Z,26.97
2022-09-30T20:11:05.198Z,27.20
2022-09-30T20:13:33.088Z,29.83
2022-09-30T20:16:01.125Z,28.57
2022-09-30T20:18:28.628Z,31.77
2022-09-30T20:20:55.530Z,33.90
2022-09-30T20:23:22.562Z,36.77
2022-09-30T20:25:50.774Z,34.77
2022-09-30T20:28:18.329Z,28.53
2022-09-30T20:30:46.412Z,32.93
2022-09-30T20:33:15.905Z,35.30
2022-09-30T20:35:43.727Z,31.40
2022-09-30T20:38:12.996Z,32.50
2022-09-30T20:40:40.327Z,21.33
2022-09-30T20:43:08.037Z,28.53
2022-09-30T20:45:40.291Z,27.83
2022-09-30T20:48:08.366Z,31.13
2022-09-30T20:50:35.274Z,28.63
2022-09-30T20:53:04.046Z,35.57
2022-09-30T20:55:33.258Z,32.50
2022-09-30T20:58:00.008Z,28.30
2022-09-30T21:00:26.876Z,31.70
2022-09-30T21:02:53.540Z,36.63
2022-09-30T21:05:20.839Z,38.13
2022-09-30T21:07:47.511Z,30.43
2022-09-30T21:10:16.855Z,28.30
2022-09-30T21:12:43.508Z,28.50
2022-09-30T21:15:11.604Z,41.47
2022-09-30T21:17:38.237Z,32.20
2022-09-30T21:20:05.929Z,33.53
2022-09-30T21:22:33.209Z,39.50
2022-09-30T21:24:59.784Z,32.30
2022-09-30T21:27:26.391Z,34.33
2022-09-30T21:29:53.022Z,39.13
2022-09-30T21:32:20.034Z,32.17
2022-09-30T21:34:46.718Z,39.37
2022-09-30T21:37:13.436Z,33.50
2022-09-30T21:39:40.693Z,43.27
2022-09-30T21:42:07.270Z,38.87
2022-09-30T21:44:33.855Z,41.70
2022-09-30T21:47:00.582Z,35.60
2022-09-30T21:49:27.167Z,37.50
2022-09-30T21:51:54.546Z,43.30
2022-09-30T21:54:25.890Z,47.07
2022-09-30T21:56:53.386Z,32.60
2022-09-30T21:59:47.395Z,39.97
2022-09-30T22:02:16.730Z,33.10
2022-09-30T22:04:43.386Z,35.67
2022-09-30T22:07:10.264Z,37.67
2022-09-30T22:09:39.451Z,36.80
2022-09-30T22:12:08.303Z,35.93
2022-09-30T22:14:36.166Z,38.43
2022-09-30T22:17:03.044Z,33.40
2022-09-30T22:19:29.793Z,33.30
2022-09-30T22:21:56.385Z,33.80
2022-09-30T22:24:23.058Z,34.13
2022-09-30T22:26:50.408Z,41.77
2022-09-30T22:29:17.765Z,35.30
2022-09-30T22:31:44.445Z,33.70
2022-09-30T22:34:31.907Z,35.20
2022-09-30T22:37:16.995Z,29.30
2022-09-30T22:39:43.696Z,29.50
2022-09-30T22:42:11.055Z,37.03
2022-09-30T22:44:38.640Z,37.17
2022-09-30T22:47:08.845Z,46.87
2022-09-30T22:49:35.574Z,29.90
2022-09-30T22:52:02.895Z,32.60
2022-09-30T22:54:30.059Z,46.20
2022-09-30T22:56:58.835Z,33.67
2022-09-30T22:59:26.129Z,34.07
2022-09-30T23:01:54.844Z,35.07
2022-09-30T23:04:22.245Z,30.23
2022-09-30T23:06:50.324Z,33.77
2022-09-30T23:09:18.229Z,33.43
2022-09-30T23:11:45.403Z,33.17
2022-09-30T23:14:12.495Z,36.67
2022-09-30T23:16:39.237Z,42.20
2022-09-30T23:19:07.192Z,33.80
2022-09-30T23:21:34.282Z,33.53
2022-09-30T23:24:01.635Z,32.87
2022-09-30T23:26:30.489Z,27.70
2022-09-30T23:28:58.376Z,39.47
2022-09-30T23:31:25.782Z,44.80
2022-09-30T23:33:56.190Z,35.73
2022-09-30T23:36:28.684Z,42.07
2022-09-30T23:38:59.524Z,40.00
2022-09-30T23:41:26.388Z,51.20
2022-09-30T23:43:53.214Z,44.53
2022-09-30T23:46:20.211Z,40.83
2022-09-30T23:48:46.788Z,39.70
2022-09-30T23:51:13.797Z,39.33
2022-09-30T23:53:44.440Z,41.07
2022-09-30T23:56:13.166Z,40.93
2022-09-30T23:58:39.903Z,46.60
